Time;durP1;ratioP1;P1;durP2;ratioP2;P2;SDS_P1;SDS_P2;PMS_P1;PMS_P2;Temp;Humidity;BMP_temperature;BMP_pressure;BME280_temperature;BME280_humidity;BME280_pressure;Samples;Min_cycle;Max_cycle;Signal;HPM_P1;HPM_P2
2024/05/03 00:01:52;;;;;;;101.88;36.15;;;;;;;13.17;100.00;100398.09;5352894;26;93862;-79
2024/05/03 00:04:17;;;;;;;104.47;36.42;;;;;;;13.15;100.00;100392.06;5357007;26;94152;-80
2024/05/03 00:06:43;;;;;;;100.97;36.75;;;;;;;13.12;100.00;100391.41;5356005;26;94345;-79
2024/05/03 00:09:10;;;;;;;100.43;38.85;;;;;;;13.02;100.00;100358.53;5355812;26;93921;-79
2024/05/03 00:11:35;;;;;;;98.68;35.75;;;;;;;13.12;100.00;100381.66;5353248;26;93886;-79
2024/05/03 00:14:01;;;;;;;98.50;34.55;;;;;;;13.11;100.00;100374.69;5357052;26;94440;-79
2024/05/03 00:16:26;;;;;;;100.43;35.05;;;;;;;12.93;100.00;100341.44;5351083;26;108591;-79
2024/05/03 00:18:51;;;;;;;96.45;34.05;;;;;;;13.11;100.00;100377.34;5352068;26;93986;-79
2024/05/03 00:21:17;;;;;;;95.93;33.92;;;;;;;13.06;100.00;100370.59;5356209;26;93967;-78
2024/05/03 00:23:42;;;;;;;87.70;32.85;;;;;;;13.09;100.00;100383.63;5354491;26;94744;-78
2024/05/03 00:26:08;;;;;;;90.03;34.58;;;;;;;13.09;100.00;100373.06;5357569;26;95119;-78
2024/05/03 00:28:33;;;;;;;93.82;35.78;;;;;;;13.08;100.00;100379.31;5354262;26;93844;-78
2024/05/03 00:30:59;;;;;;;96.10;36.10;;;;;;;13.01;100.00;100372.69;5355361;26;93832;-78
2024/05/03 00:33:24;;;;;;;100.80;32.92;;;;;;;13.04;100.00;100380.44;5350027;26;94686;-78
2024/05/03 00:35:50;;;;;;;84.40;34.38;;;;;;;13.05;100.00;100390.91;5353404;26;94738;-78
2024/05/03 00:38:15;;;;;;;93.85;34.75;;;;;;;13.08;100.00;100397.81;5352671;26;94825;-78
2024/05/03 00:40:41;;;;;;;91.82;33.05;;;;;;;13.02;100.00;100388.44;5367801;26;93998;-78
2024/05/03 00:43:06;;;;;;;98.88;34.95;;;;;;;13.07;100.00;100394.31;5359482;26;94376;-78
2024/05/03 00:45:32;;;;;;;92.10;32.47;;;;;;;13.09;100.00;100395.06;5389249;26;95150;-78
2024/05/03 00:47:59;;;;;;;91.55;33.85;;;;;;;12.90;100.00;100360.97;5391337;26;95992;-78
2024/05/03 00:50:24;;;;;;;91.47;35.78;;;;;;;12.97;100.00;100372.03;5387750;26;93916;-77
2024/05/03 00:52:50;;;;;;;85.55;33.75;;;;;;;12.87;100.00;100361.13;5385878;26;94709;-77
2024/05/03 00:55:17;;;;;;;82.13;33.63;;;;;;;13.08;100.00;100389.88;5363046;26;94804;-77
2024/05/03 00:57:43;;;;;;;85.88;31.58;;;;;;;13.07;100.00;100396.97;5360018;26;94930;-78
2024/05/03 01:00:11;;;;;;;87.57;32.38;;;;;;;13.08;100.00;100395.16;5358844;26;94865;-77
2024/05/03 01:02:37;;;;;;;75.50;31.05;;;;;;;13.08;100.00;100384.59;5388050;26;94657;-78
2024/05/03 01:05:04;;;;;;;76.18;31.50;;;;;;;13.07;100.00;100380.25;5370951;26;96609;-78
2024/05/03 01:07:30;;;;;;;88.10;32.08;;;;;;;13.10;100.00;100388.81;5390354;26;93897;-78
2024/05/03 01:09:55;;;;;;;81.93;30.63;;;;;;;13.04;100.00;100386.56;5391347;26;94733;-77
2024/05/03 01:12:22;;;;;;;68.40;28.80;;;;;;;13.05;100.00;100377.69;5391392;26;94894;-77
2024/05/03 01:14:47;;;;;;;70.03;27.58;;;;;;;13.07;100.00;100390.81;5391395;26;94483;-78
2024/05/03 01:17:13;;;;;;;65.43;26.23;;;;;;;13.08;100.00;100390.72;5388059;26;93749;-78
2024/05/03 01:19:38;;;;;;;68.95;27.15;;;;;;;13.08;100.00;100400.44;5389789;26;93863;-78
2024/05/03 01:22:08;;;;;;;69.35;27.55;;;;;;;13.11;100.00;100424.91;5388632;26;94803;-77
2024/05/03 01:24:33;;;;;;;66.00;26.65;;;;;;;13.09;100.00;100420.66;5389463;26;94676;-78
2024/05/03 01:26:59;;;;;;;65.00;26.63;;;;;;;13.03;100.00;100413.94;5387949;26;93837;-78
2024/05/03 01:29:24;;;;;;;57.70;25.35;;;;;;;13.07;100.00;100422.53;5390294;26;93907;-78
2024/05/03 01:31:50;;;;;;;66.78;25.65;;;;;;;13.11;100.00;100424.06;5389857;26;94372;-77
2024/05/03 01:34:15;;;;;;;64.65;24.45;;;;;;;13.06;100.00;100419.03;5386478;26;94741;-77
2024/05/03 01:36:40;;;;;;;57.58;25.70;;;;;;;12.93;100.00;100405.69;5357925;26;93825;-77
2024/05/03 01:39:06;;;;;;;70.70;25.17;;;;;;;13.07;100.00;100422.53;5370980;26;93843;-78
2024/05/03 01:41:31;;;;;;;60.53;24.17;;;;;;;13.06;100.00;100431.38;5388868;26;97034;-77
2024/05/03 01:43:56;;;;;;;63.63;26.92;;;;;;;12.94;100.00;100412.69;5362362;26;97273;-77
2024/05/03 01:46:22;;;;;;;69.30;26.95;;;;;;;13.07;100.00;100433.13;5354496;26;102062;-77
2024/05/03 01:48:50;;;;;;;66.05;27.67;;;;;;;13.05;100.00;100443.75;5361571;26;93985;-77
2024/05/03 01:51:16;;;;;;;73.10;28.92;;;;;;;13.04;100.00;100441.22;5392976;26;108388;-78
2024/05/03 01:53:41;;;;;;;73.28;27.13;;;;;;;13.03;100.00;100423.63;5387671;26;94363;-77
2024/05/03 01:56:06;;;;;;;76.75;28.00;;;;;;;13.02;100.00;100416.66;5358875;26;93883;-77
2024/05/03 01:58:32;;;;;;;72.45;29.33;;;;;;;13.07;100.00;100433.13;5387442;26;94928;-79
2024/05/03 02:00:57;;;;;;;80.72;32.33;;;;;;;13.04;100.00;100426.22;5354439;26;94834;-78
2024/05/03 02:03:22;;;;;;;73.70;29.10;;;;;;;12.88;100.00;100407.78;5386690;26;94403;-78
2024/05/03 02:05:48;;;;;;;87.32;31.90;;;;;;;12.90;100.00;100429.66;5388450;26;94430;-78
2024/05/03 02:08:13;;;;;;;75.43;29.30;;;;;;;12.93;100.00;100442.69;5390628;26;94836;-78
2024/05/03 02:10:38;;;;;;;82.38;32.03;;;;;;;12.91;100.00;100449.88;5387864;26;105666;-78
2024/05/03 02:13:04;;;;;;;78.35;30.25;;;;;;;12.90;100.00;100445.50;5388591;26;94352;-78
2024/05/03 02:15:29;;;;;;;78.75;30.77;;;;;;;12.75;100.00;100425.25;5387392;26;94438;-77
2024/05/03 02:17:54;;;;;;;81.82;32.15;;;;;;;12.90;100.00;100452.59;5388766;26;93963;-78
2024/05/03 02:20:20;;;;;;;92.57;33.28;;;;;;;12.85;100.00;100457.28;5386273;26;94360;-78
2024/05/03 02:22:45;;;;;;;85.13;32.35;;;;;;;12.81;100.00;100456.63;5386806;26;94484;-78
2024/05/03 02:25:11;;;;;;;86.45;32.40;;;;;;;12.65;100.00;100437.31;5386511;26;93989;-78
2024/05/03 02:27:36;;;;;;;96.03;32.38;;;;;;;12.68;100.00;100451.22;5389364;26;93833;-78
2024/05/03 02:30:02;;;;;;;88.25;32.85;;;;;;;12.82;100.00;100468.03;5354965;26;94700;-78
2024/05/03 02:32:27;;;;;;;92.97;33.83;;;;;;;12.81;100.00;100475.13;5353726;26;96592;-78
2024/05/03 02:34:53;;;;;;;96.15;34.80;;;;;;;12.78;100.00;100474.44;5362969;26;101848;-78
2024/05/03 02:37:18;;;;;;;92.97;33.42;;;;;;;12.80;100.00;100480.47;5387557;26;93846;-78
2024/05/03 02:39:43;;;;;;;83.72;33.03;;;;;;;12.69;100.00;100468.75;5357854;26;124151;-78
2024/05/03 02:42:09;;;;;;;91.38;35.25;;;;;;;12.83;100.00;100490.88;5389704;26;94680;-79
2024/05/03 02:44:34;;;;;;;87.32;32.30;;;;;;;12.79;100.00;100491.97;5393986;26;96375;-79
2024/05/03 02:46:59;;;;;;;77.32;30.60;;;;;;;12.71;100.00;100485.34;5363028;26;93825;-79
2024/05/03 02:49:25;;;;;;;73.65;29.65;;;;;;;12.79;100.00;100495.47;5391532;26;94667;-79
2024/05/03 02:51:52;;;;;;;77.78;29.73;;;;;;;12.61;100.00;100478.91;5390003;26;94352;-79
2024/05/03 02:54:20;;;;;;;67.20;27.95;;;;;;;12.78;100.00;100506.13;5394018;26;93879;-79
2024/05/03 02:56:46;;;;;;;70.90;29.15;;;;;;;12.78;100.00;100535.19;5389843;26;94468;-79
2024/05/03 02:59:12;;;;;;;75.25;28.00;;;;;;;12.77;100.00;100546.72;5390382;26;94589;-79
2024/05/03 03:01:43;;;;;;;76.15;27.77;;;;;;;12.74;100.00;100574.16;5391171;26;94677;-79
2024/05/03 03:04:08;;;;;;;68.07;26.67;;;;;;;12.72;100.00;100586.56;5395345;25;94136;-79
2024/05/03 03:06:36;;;;;;;67.78;26.88;;;;;;;12.70;100.00;100606.94;5392111;26;94500;-79
2024/05/03 03:09:01;;;;;;;71.95;27.90;;;;;;;12.53;100.00;100578.84;5391914;26;94839;-79
2024/05/03 03:11:27;;;;;;;76.85;26.60;;;;;;;12.49;100.00;100587.84;5391561;26;94620;-79
2024/05/03 03:13:52;;;;;;;75.75;28.48;;;;;;;12.64;100.00;100616.03;5390314;26;94887;-79
2024/05/03 03:16:17;;;;;;;74.22;29.33;;;;;;;12.69;100.00;100615.81;5356924;26;94054;-79
2024/05/03 03:18:43;;;;;;;89.72;31.00;;;;;;;12.72;100.00;100610.34;5392326;26;94605;-79
2024/05/03 03:21:08;;;;;;;67.47;26.08;;;;;;;12.73;100.00;100604.16;5390880;26;94636;-79
2024/05/03 03:23:34;;;;;;;71.32;28.88;;;;;;;12.72;100.00;100605.06;5390725;26;93957;-79
2024/05/03 03:26:02;;;;;;;78.45;27.15;;;;;;;12.75;100.00;100610.19;5359724;26;93952;-79
2024/05/03 03:28:27;;;;;;;71.32;25.30;;;;;;;12.68;100.00;100590.31;5383789;26;95044;-79
2024/05/03 03:30:52;;;;;;;63.10;25.67;;;;;;;12.66;100.00;100590.41;5391324;26;94543;-79
2024/05/03 03:33:18;;;;;;;70.60;25.65;;;;;;;12.55;100.00;100558.47;5362923;26;99841;-79
2024/05/03 03:35:44;;;;;;;61.33;22.48;;;;;;;12.67;100.00;100570.13;5360346;26;94097;-80
2024/05/03 03:38:10;;;;;;;65.60;23.55;;;;;;;12.51;100.00;100538.44;5361433;26;94635;-79
2024/05/03 03:40:35;;;;;;;56.63;20.77;;;;;;;12.60;100.00;100545.84;5393007;26;94729;-79
2024/05/03 03:43:02;;;;;;;63.40;23.83;;;;;;;12.54;100.00;100533.00;5390623;26;93868;-79
2024/05/03 03:45:28;;;;;;;63.05;23.95;;;;;;;12.50;100.00;100520.06;5391977;26;93865;-79
2024/05/03 03:47:53;;;;;;;61.22;21.55;;;;;;;12.44;100.00;100521.22;5389566;26;94493;-80
2024/05/03 03:50:21;;;;;;;56.13;21.50;;;;;;;12.40;100.00;100511.78;5392047;26;94950;-80
2024/05/03 03:52:46;;;;;;;51.83;18.52;;;;;;;12.22;100.00;100484.59;5389018;26;93785;-79
2024/05/03 03:55:15;;;;;;;52.85;19.08;;;;;;;12.33;100.00;100518.31;5363745;26;94013;-79
2024/05/03 03:57:40;;;;;;;51.35;19.05;;;;;;;12.29;100.00;100503.59;5359213;26;96486;-80
2024/05/03 04:00:06;;;;;;;46.78;18.63;;;;;;;12.29;100.00;100512.34;5359318;26;97565;-79
2024/05/03 04:02:35;;;;;;;49.33;18.75;;;;;;;12.29;100.00;100527.34;5358086;26;93837;-79
2024/05/03 04:05:01;;;;;;;53.15;19.05;;;;;;;12.24;100.00;100529.41;5389997;26;94466;-80
2024/05/03 04:07:26;;;;;;;46.33;18.58;;;;;;;12.25;100.00;100537.22;5388950;26;94711;-80
2024/05/03 04:09:52;;;;;;;49.75;19.05;;;;;;;12.29;100.00;100544.03;5389416;26;94655;-79
2024/05/03 04:12:17;;;;;;;51.13;19.73;;;;;;;12.27;100.00;100543.28;5392376;26;95579;-79
2024/05/03 04:14:45;;;;;;;47.17;18.13;;;;;;;12.19;100.00;100525.22;5360416;26;94594;-79
2024/05/03 04:17:11;;;;;;;52.75;19.58;;;;;;;12.26;100.00;100536.31;5388792;26;94504;-80
2024/05/03 04:19:36;;;;;;;49.30;18.50;;;;;;;12.25;100.00;100544.28;5387925;26;94796;-80
2024/05/03 04:22:02;;;;;;;54.33;18.30;;;;;;;12.23;100.00;100551.47;5392153;26;94762;-80
2024/05/03 04:24:27;;;;;;;48.65;17.02;;;;;;;12.24;100.00;100559.28;5360762;26;95168;-80
2024/05/03 04:26:52;;;;;;;45.13;17.38;;;;;;;12.16;100.00;100537.72;5360263;26;96662;-79
2024/05/03 04:29:18;;;;;;;43.13;17.27;;;;;;;12.15;100.00;100543.94;5367228;26;94518;-79
2024/05/03 04:31:43;;;;;;;43.38;17.10;;;;;;;12.18;100.00;100544.63;5368541;26;93889;-80
2024/05/03 04:34:08;;;;;;;44.85;17.02;;;;;;;12.19;100.00;100541.06;5405360;26;93846;-80
2024/05/03 04:36:34;;;;;;;41.13;15.68;;;;;;;12.17;100.00;100542.06;5411148;26;94488;-80
2024/05/03 04:38:59;;;;;;;42.70;17.02;;;;;;;12.11;100.00;100547.69;5401645;26;94370;-79
2024/05/03 04:41:24;;;;;;;36.22;15.80;;;;;;;12.09;100.00;100558.31;5368864;26;93926;-80
2024/05/03 04:43:50;;;;;;;33.83;14.82;;;;;;;12.11;100.00;100558.25;5393414;26;94881;-79
2024/05/03 04:46:21;;;;;;;39.00;14.10;;;;;;;11.98;100.00;100552.75;5387379;26;94911;-79
2024/05/03 04:48:47;;;;;;;34.83;13.93;;;;;;;12.02;100.00;100553.44;5358171;26;94815;-80
2024/05/03 04:51:13;;;;;;;29.35;13.45;;;;;;;11.90;100.00;100563.69;5395278;26;94407;-80
2024/05/03 04:53:38;;;;;;;35.22;14.73;;;;;;;12.04;100.00;100599.09;5389064;26;94078;-80
2024/05/03 04:56:04;;;;;;;35.90;13.98;;;;;;;12.03;100.00;100602.63;5389988;26;94453;-80
2024/05/03 04:58:29;;;;;;;35.47;14.25;;;;;;;11.89;100.00;100571.72;5388652;26;94712;-79
2024/05/03 05:00:54;;;;;;;33.00;14.15;;;;;;;12.05;100.00;100606.91;5354445;26;115824;-77
2024/05/03 05:03:20;;;;;;;36.40;14.20;;;;;;;11.81;100.00;100564.16;5390442;26;93856;-76
2024/05/03 05:05:45;;;;;;;32.38;14.45;;;;;;;11.85;100.00;100563.09;5355331;26;96441;-76
2024/05/03 05:08:10;;;;;;;34.65;14.32;;;;;;;11.96;100.00;100592.41;5389931;26;114997;-76
2024/05/03 05:10:36;;;;;;;39.83;14.55;;;;;;;11.95;100.00;100585.44;5390504;26;93823;-76
2024/05/03 05:13:04;;;;;;;36.00;15.13;;;;;;;11.90;100.00;100576.03;5393511;26;94875;-75
2024/05/03 05:15:30;;;;;;;32.70;14.57;;;;;;;11.96;100.00;100589.78;5390819;26;94433;-75
2024/05/03 05:17:55;;;;;;;34.20;14.20;;;;;;;11.72;100.00;100562.88;5354998;26;108019;-76
2024/05/03 05:20:24;;;;;;;30.40;13.55;;;;;;;11.71;100.00;100561.13;5389762;26;94754;-76
2024/05/03 05:22:52;;;;;;;35.75;13.02;;;;;;;11.92;100.00;100609.34;5390329;26;93864;-76
2024/05/03 05:25:18;;;;;;;31.65;12.77;;;;;;;11.92;100.00;100616.41;5386563;26;94570;-77
2024/05/03 05:27:44;;;;;;;26.67;10.98;;;;;;;11.90;100.00;100619.09;5388775;26;112986;-77
2024/05/03 05:30:10;;;;;;;22.08;10.50;;;;;;;11.93;100.00;100632.13;5357017;26;95595;-77
2024/05/03 05:32:35;;;;;;;22.98;10.65;;;;;;;11.90;100.00;100629.66;5387177;26;93925;-77
2024/05/03 05:35:01;;;;;;;25.58;11.65;;;;;;;11.72;100.00;100612.09;5388481;26;94761;-77
2024/05/03 05:37:27;;;;;;;25.88;11.48;;;;;;;11.69;100.00;100599.09;5391911;26;94584;-77
2024/05/03 05:39:52;;;;;;;26.48;12.38;;;;;;;11.90;100.00;100642.00;5383451;26;94716;-76
2024/05/03 05:42:17;;;;;;;28.27;11.55;;;;;;;11.88;100.00;100644.72;5390102;26;107738;-76
2024/05/03 05:44:46;;;;;;;25.05;10.75;;;;;;;11.91;100.00;100663.00;5358890;26;94831;-77
2024/05/03 05:47:11;;;;;;;26.50;11.07;;;;;;;11.89;100.00;100656.97;5353364;26;96682;-76
2024/05/03 05:49:36;;;;;;;26.90;11.50;;;;;;;11.86;100.00;100653.63;5388176;26;93926;-76
2024/05/03 05:52:04;;;;;;;29.55;11.52;;;;;;;11.86;100.00;100659.75;5355989;26;95079;-76
2024/05/03 05:54:30;;;;;;;29.55;12.45;;;;;;;11.82;100.00;100654.69;5389369;26;96278;-76
2024/05/03 05:56:57;;;;;;;33.22;12.90;;;;;;;11.87;100.00;100666.75;5384104;26;94737;-76
2024/05/03 05:59:22;;;;;;;28.00;13.00;;;;;;;11.88;100.00;100659.69;5357286;26;94834;-76
2024/05/03 06:01:49;;;;;;;28.73;11.88;;;;;;;11.81;100.00;100647.72;5390144;26;93881;-77
2024/05/03 06:04:16;;;;;;;35.63;14.00;;;;;;;11.80;100.00;100644.22;5356895;26;96587;-77
2024/05/03 06:06:42;;;;;;;37.55;13.82;;;;;;;11.87;100.00;100656.19;5356428;26;96832;-77
2024/05/03 06:09:07;;;;;;;34.60;15.48;;;;;;;11.87;100.00;100663.25;5359873;26;94925;-77
2024/05/03 06:11:33;;;;;;;35.33;15.73;;;;;;;11.88;100.00;100678.16;5396660;26;93975;-78
2024/05/03 06:14:01;;;;;;;40.47;15.93;;;;;;;11.87;100.00;100671.16;5358973;26;94722;-77
2024/05/03 06:16:28;;;;;;;37.90;14.27;;;;;;;11.89;100.00;100671.97;5391596;26;94921;-78
2024/05/03 06:18:54;;;;;;;38.92;15.43;;;;;;;11.87;100.00;100674.66;5357030;26;93839;-77
2024/05/03 06:21:19;;;;;;;41.00;15.93;;;;;;;11.91;100.00;100681.47;5363530;26;94625;-77
2024/05/03 06:23:45;;;;;;;44.45;18.98;;;;;;;11.67;100.00;100640.50;5372891;26;94779;-77
2024/05/03 06:26:10;;;;;;;31.88;15.55;;;;;;;11.89;100.00;100678.09;5385352;26;111596;-77
2024/05/03 06:28:36;;;;;;;32.72;15.00;;;;;;;11.73;100.00;100648.09;5359663;26;94918;-77
2024/05/03 06:31:01;;;;;;;34.08;14.57;;;;;;;11.95;100.00;100677.78;5396157;26;93949;-77
2024/05/03 06:33:27;;;;;;;37.35;16.02;;;;;;;11.93;100.00;100676.16;5389954;26;94116;-76
2024/05/03 06:35:52;;;;;;;45.55;19.67;;;;;;;11.79;100.00;100660.97;5361797;26;94858;-77
2024/05/03 06:38:20;;;;;;;28.48;11.90;;;;;;;11.87;100.00;100666.75;5393525;26;93833;-77
2024/05/03 06:40:46;;;;;;;32.08;13.23;;;;;;;11.91;100.00;100678.84;5392208;26;93862;-77
2024/05/03 06:43:12;;;;;;;28.90;11.15;;;;;;;11.73;100.00;100662.16;5392101;26;94414;-77
2024/05/03 06:45:37;;;;;;;25.85;11.40;;;;;;;11.84;100.00;100680.09;5361040;26;94469;-77
2024/05/03 06:48:03;;;;;;;35.30;12.00;;;;;;;11.79;100.00;100668.03;5391911;26;93854;-76
2024/05/03 06:50:29;;;;;;;29.60;13.52;;;;;;;11.80;100.00;100673.25;5392883;26;94879;-77
2024/05/03 06:52:54;;;;;;;27.42;10.93;;;;;;;11.76;100.00;100666.41;5390100;26;94674;-77
2024/05/03 06:55:19;;;;;;;23.27;10.55;;;;;;;11.82;100.00;100681.06;5392878;26;98143;-77
2024/05/03 06:57:45;;;;;;;21.52;9.90;;;;;;;11.75;100.00;100662.06;5390647;26;94599;-77
2024/05/03 07:00:10;;;;;;;23.33;8.98;;;;;;;11.75;100.00;100669.97;5393823;26;93911;-76
2024/05/03 07:02:35;;;;;;;22.55;10.55;;;;;;;11.77;100.00;100677.81;5358031;26;94746;-77
2024/05/03 07:05:01;;;;;;;25.85;9.38;;;;;;;11.66;100.00;100668.66;5391062;26;95834;-76
2024/05/03 07:07:26;;;;;;;17.02;8.00;;;;;;;11.70;100.00;100687.81;5388760;26;104818;-76
2024/05/03 07:09:51;;;;;;;20.15;8.55;;;;;;;11.63;100.00;100675.84;5359221;26;94707;-77
2024/05/03 07:12:17;;;;;;;18.10;8.20;;;;;;;11.73;100.00;100687.66;5388205;26;94813;-77
2024/05/03 07:14:42;;;;;;;17.13;7.97;;;;;;;11.68;100.00;100687.91;5386370;26;96338;-76
2024/05/03 07:17:08;;;;;;;16.60;7.07;;;;;;;11.68;100.00;100698.44;5372708;26;93877;-76
2024/05/03 07:19:33;;;;;;;20.45;8.07;;;;;;;11.60;100.00;100692.66;5385921;26;93864;-77
2024/05/03 07:21:58;;;;;;;20.20;7.18;;;;;;;11.65;100.00;100706.50;5390070;26;102389;-78
2024/05/03 07:24:24;;;;;;;16.27;7.47;;;;;;;11.59;100.00;100713.84;5388870;26;94665;-78
2024/05/03 07:26:49;;;;;;;15.88;6.50;;;;;;;11.61;100.00;100715.50;5360840;26;93824;-78
2024/05/03 07:29:15;;;;;;;11.82;5.40;;;;;;;11.64;100.00;100731.16;5389871;26;93909;-78
2024/05/03 07:31:41;;;;;;;17.10;5.57;;;;;;;11.49;100.00;100709.03;5389084;26;94832;-78
2024/05/03 07:34:06;;;;;;;16.63;6.65;;;;;;;11.59;100.00;100724.41;5390597;26;94653;-78
2024/05/03 07:36:32;;;;;;;16.38;8.20;;;;;;;11.64;100.00;100740.84;5387886;26;94193;-77
2024/05/03 07:38:58;;;;;;;14.38;5.38;;;;;;;11.65;100.00;100739.94;5389678;26;94334;-78
2024/05/03 07:41:24;;;;;;;10.50;4.10;;;;;;;11.56;100.00;100733.31;5389782;26;94408;-78
2024/05/03 07:43:49;;;;;;;13.75;4.72;;;;;;;11.59;100.00;100737.59;5391361;26;94460;-78
2024/05/03 07:46:20;;;;;;;11.75;4.03;;;;;;;11.54;100.00;100724.63;5373866;26;93903;-78
2024/05/03 07:48:45;;;;;;;11.30;4.57;;;;;;;11.65;100.00;100753.13;5372604;26;94032;-78
2024/05/03 07:51:11;;;;;;;11.13;3.95;;;;;;;11.63;100.00;100745.28;5390882;26;94425;-79
2024/05/03 07:53:36;;;;;;;10.30;4.00;;;;;;;11.63;100.00;100762.88;5396477;26;94892;-79
2024/05/03 07:56:01;;;;;;;6.95;3.40;;;;;;;11.56;100.00;100757.03;5394668;26;107986;-78
2024/05/03 07:58:27;;;;;;;11.93;3.35;;;;;;;11.56;100.00;100770.22;5395620;26;94318;-79
2024/05/03 08:00:52;;;;;;;11.25;3.92;;;;;;;11.59;100.00;100783.25;5391104;26;94607;-78
2024/05/03 08:03:19;;;;;;;12.43;3.33;;;;;;;11.56;100.00;100774.66;5372315;26;94745;-78
2024/05/03 08:05:44;;;;;;;6.70;2.80;;;;;;;11.56;100.00;100780.78;5389384;26;94723;-78
2024/05/03 08:08:10;;;;;;;5.05;2.40;;;;;;;11.53;100.00;100785.31;5385026;26;96383;-78
2024/05/03 08:10:35;;;;;;;2.88;1.55;;;;;;;11.56;100.00;100785.19;5389084;26;94681;-78
2024/05/03 08:13:00;;;;;;;5.07;2.05;;;;;;;11.32;100.00;100755.56;5356054;26;112616;-78
2024/05/03 08:15:26;;;;;;;3.65;1.40;;;;;;;11.38;100.00;100765.84;5389767;26;99715;-78
2024/05/03 08:17:51;;;;;;;3.35;1.20;;;;;;;11.39;100.00;100767.53;5392079;26;93974;-78
2024/05/03 08:20:17;;;;;;;4.20;0.90;;;;;;;11.48;100.00;100790.81;5388140;26;94387;-78
2024/05/03 08:22:42;;;;;;;3.10;0.80;;;;;;;11.52;100.00;100797.66;5356390;26;118579;-78
2024/05/03 08:25:08;;;;;;;1.70;0.90;;;;;;;11.40;100.00;100787.69;5387037;26;94518;-78
2024/05/03 08:27:33;;;;;;;2.00;1.08;;;;;;;11.42;100.00;100791.97;5391565;26;93974;-78
2024/05/03 08:29:59;;;;;;;2.53;1.15;;;;;;;11.45;100.00;100798.88;5391195;26;94870;-78
2024/05/03 08:32:24;;;;;;;3.22;1.15;;;;;;;11.37;100.00;100788.69;5388984;26;94756;-76
2024/05/03 08:34:49;;;;;;;2.85;1.15;;;;;;;11.51;100.00;100797.75;5362018;26;94851;-76
2024/05/03 08:37:15;;;;;;;5.13;2.08;;;;;;;11.53;100.00;100809.94;5356992;26;115829;-76
2024/05/03 08:39:42;;;;;;;3.65;1.10;;;;;;;11.48;100.00;100809.28;5390318;26;94938;-77
2024/05/03 08:42:09;;;;;;;2.78;0.77;;;;;;;11.49;100.00;100811.88;5393961;26;94500;-77
2024/05/03 08:44:39;;;;;;;2.35;1.00;;;;;;;11.45;100.00;100812.06;5391368;26;93819;-76
2024/05/03 08:47:10;;;;;;;1.83;1.02;;;;;;;11.38;100.00;100808.00;5394276;26;94781;-77
2024/05/03 08:50:04;;;;;;;2.55;0.70;;;;;;;11.42;100.00;100828.03;5386095;26;94779;-77
2024/05/03 08:52:42;;;;;;;2.25;0.60;;;;;;;11.40;100.00;100840.41;5401669;26;96106;-77
2024/05/03 08:55:08;;;;;;;3.80;1.15;;;;;;;11.35;100.00;100822.19;5390067;26;93779;-77
2024/05/03 08:57:34;;;;;;;2.47;1.10;;;;;;;11.40;100.00;100849.19;5360145;26;94944;-76
2024/05/03 09:00:03;;;;;;;4.43;1.00;;;;;;;11.39;100.00;100850.09;5389088;26;94659;-77
2024/05/03 09:02:28;;;;;;;4.25;1.10;;;;;;;11.26;100.00;100833.13;5369861;26;94676;-77
2024/05/03 09:04:55;;;;;;;2.20;0.90;;;;;;;11.35;100.00;100850.31;5387948;26;93893;-77
2024/05/03 09:07:26;;;;;;;4.25;0.90;;;;;;;11.35;100.00;100855.59;5392754;26;93855;-76
2024/05/03 09:09:55;;;;;;;7.10;1.17;;;;;;;11.34;100.00;100859.13;5365907;26;96353;-77
2024/05/03 09:12:20;;;;;;;4.38;0.70;;;;;;;11.35;100.00;100866.16;5372745;26;94974;-77
2024/05/03 09:14:48;;;;;;;6.28;1.88;;;;;;;11.20;100.00;100839.53;5388824;26;93838;-76
2024/05/03 09:17:13;;;;;;;6.15;1.10;;;;;;;11.37;100.00;100859.00;5389506;26;94124;-76
2024/05/03 09:19:39;;;;;;;3.55;1.27;;;;;;;11.23;100.00;100851.75;5387863;26;102531;-76
2024/05/03 09:22:05;;;;;;;2.67;0.80;;;;;;;11.37;100.00;100866.91;5390925;26;94830;-77
2024/05/03 09:24:30;;;;;;;4.38;1.23;;;;;;;11.20;100.00;100855.34;5389584;26;94983;-76
2024/05/03 09:26:56;;;;;;;4.25;1.15;;;;;;;11.37;100.00;100875.66;5386984;26;114475;-76
2024/05/03 09:29:21;;;;;;;5.85;1.02;;;;;;;11.28;100.00;100878.72;5393528;26;94305;-76
2024/05/03 09:31:51;;;;;;;5.07;1.05;;;;;;;11.33;100.00;100887.28;5361711;26;94674;-77
2024/05/03 09:34:20;;;;;;;5.10;1.00;;;;;;;11.35;100.00;100879.31;5393080;26;93778;-77
2024/05/03 09:36:47;;;;;;;5.68;1.30;;;;;;;11.20;100.00;100871.16;5388500;26;94685;-77
2024/05/03 09:39:12;;;;;;;3.67;0.90;;;;;;;11.34;100.00;100896.03;5394123;26;94467;-77
2024/05/03 09:41:38;;;;;;;3.72;0.90;;;;;;;11.27;100.00;100892.00;5357094;26;94895;-77
2024/05/03 09:44:03;;;;;;;4.97;1.17;;;;;;;11.25;100.00;100898.16;5354680;26;93990;-79
2024/05/03 09:46:29;;;;;;;7.50;1.73;;;;;;;11.32;100.00;100911.94;5353823;26;94549;-79
2024/05/03 09:49:00;;;;;;;6.30;1.20;;;;;;;11.32;100.00;100919.00;5354190;26;94668;-78
2024/05/03 09:51:33;;;;;;;5.97;1.10;;;;;;;11.31;100.00;100914.66;5354410;26;94770;-79
2024/05/03 09:54:04;;;;;;;4.93;1.20;;;;;;;11.28;100.00;100912.16;5350050;26;93897;-78
2024/05/03 09:56:36;;;;;;;4.25;0.98;;;;;;;11.21;100.00;100907.13;5353183;26;93823;-78
2024/05/03 09:59:06;;;;;;;4.57;0.90;;;;;;;11.27;100.00;100916.56;5394673;26;96887;-78
2024/05/03 10:01:34;;;;;;;2.38;0.80;;;;;;;11.25;100.00;100919.25;5364062;26;94802;-78
2024/05/03 10:04:01;;;;;;;2.92;1.02;;;;;;;11.19;100.00;100909.00;5357901;26;93946;-78
2024/05/03 10:06:28;;;;;;;4.75;1.65;;;;;;;11.23;100.00;100915.84;5350645;26;94468;-78
2024/05/03 10:08:54;;;;;;;3.22;1.50;;;;;;;11.23;100.00;100929.03;5356849;26;94579;-78
2024/05/03 10:11:20;;;;;;;7.93;2.83;;;;;;;11.31;100.00;100943.66;5350209;26;93882;-78
2024/05/03 10:13:51;;;;;;;3.38;0.70;;;;;;;11.32;100.00;100943.56;5352157;26;94094;-78
2024/05/03 10:16:19;;;;;;;5.15;1.30;;;;;;;11.30;100.00;100929.63;5364440;26;93910;-78
2024/05/03 10:18:45;;;;;;;3.20;0.70;;;;;;;11.29;100.00;100934.94;5351972;26;96200;-78
2024/05/03 10:21:34;;;;;;;3.65;0.85;;;;;;;11.32;100.00;100956.75;5352714;26;94773;-79
2024/05/03 10:24:01;;;;;;;2.13;0.75;;;;;;;11.23;100.00;100930.81;5351850;26;93915;-79
2024/05/03 10:26:27;;;;;;;6.55;0.88;;;;;;;11.22;100.00;100937.84;5354296;26;94169;-79
2024/05/03 10:29:00;;;;;;;3.47;1.40;;;;;;;11.35;100.00;100956.63;5353886;26;94374;-78
2024/05/03 10:31:27;;;;;;;3.88;1.15;;;;;;;11.23;100.00;100951.88;5352692;26;94724;-78
2024/05/03 10:33:56;;;;;;;5.05;1.00;;;;;;;11.33;100.00;100965.50;5362364;26;93822;-78
2024/05/03 10:36:23;;;;;;;12.65;1.23;;;;;;;11.32;100.00;100966.44;5377023;26;94122;-78
2024/05/03 10:38:50;;;;;;;5.63;1.13;;;;;;;11.25;100.00;100963.19;5350531;26;94698;-79
2024/05/03 10:41:16;;;;;;;3.53;1.10;;;;;;;11.09;100.00;100946.34;5376661;26;94403;-78
2024/05/03 10:43:42;;;;;;;5.72;1.45;;;;;;;11.22;100.00;100980.03;5389513;26;93780;-78
2024/05/03 10:46:07;;;;;;;4.70;1.00;;;;;;;11.02;100.00;100945.75;5358082;26;94400;-79
2024/05/03 10:48:37;;;;;;;2.80;0.95;;;;;;;11.22;100.00;100987.03;5390446;26;94791;-78
2024/05/03 10:51:03;;;;;;;5.05;1.38;;;;;;;11.21;100.00;100986.19;5390395;26;95031;-78
2024/05/03 10:53:29;;;;;;;6.80;1.35;;;;;;;11.21;100.00;100987.97;5355124;26;94500;-78
2024/05/03 10:55:55;;;;;;;3.47;1.00;;;;;;;11.07;100.00;100963.97;5395776;26;93928;-78
2024/05/03 10:58:21;;;;;;;5.55;1.67;;;;;;;11.19;100.00;100993.31;5391990;26;94584;-79
2024/05/03 11:00:46;;;;;;;4.38;0.77;;;;;;;11.18;100.00;100985.47;5364285;26;94664;-79
2024/05/03 11:03:12;;;;;;;4.75;1.20;;;;;;;11.17;100.00;100992.53;5389625;26;93831;-78